EZY217U EGGP-EGAC
Flight info
| Callsign | EZY217U |
|---|---|
| Flight time | 0h 31m |
| Altitude | 24000 |
| Route | WAL M146 ERDUV Z198 MASOP M148 MAGEE |
| Aircraft | A320/M-SDE3FGHIRWY/LB1 |
Departure
| Time | 2026-05-04 17:46 |
|---|---|
| Airport | Liverpool John Lennon Airport (EGGP) |
Arrival
| Time | 2026-05-04 18:17 |
|---|---|
| Airport | George Best Belfast City Airport (EGAC) |
| Time | Latitude | Longitude | Altitude | Speed | Heading |
|---|---|---|---|---|---|
| 2026-05-04 17:17 | 53.33587 | -2.85184 | 88 ft | 0 kts | 265° |
| 2026-05-04 17:35 | 53.33588 | -2.85173 | 89 ft | 4 kts | 265° |
| 2026-05-04 17:35 | 53.33590 | -2.85128 | 85 ft | 4 kts | 266° |
| 2026-05-04 17:36 | 53.33592 | -2.85093 | 87 ft | 4 kts | 248° |
| 2026-05-04 17:36 | 53.33607 | -2.85068 | 88 ft | 4 kts | 181° |
| 2026-05-04 17:36 | 53.33631 | -2.85071 | 85 ft | 2 kts | 175° |
| 2026-05-04 17:36 | 53.33633 | -2.85071 | 85 ft | 0 kts | 175° |
| 2026-05-04 17:41 | 53.33629 | -2.85070 | 85 ft | 3 kts | 176° |
| 2026-05-04 17:41 | 53.33603 | -2.85067 | 85 ft | 7 kts | 176° |
| 2026-05-04 17:41 | 53.33536 | -2.85039 | 88 ft | 12 kts | 137° |
| 2026-05-04 17:42 | 53.33532 | -2.84896 | 85 ft | 14 kts | 85° |
| 2026-05-04 17:42 | 53.33540 | -2.84713 | 84 ft | 19 kts | 86° |
| 2026-05-04 17:42 | 53.33552 | -2.84476 | 75 ft | 22 kts | 85° |
| 2026-05-04 17:42 | 53.33565 | -2.84213 | 79 ft | 23 kts | 85° |
| 2026-05-04 17:43 | 53.33578 | -2.83920 | 77 ft | 27 kts | 86° |
| 2026-05-04 17:43 | 53.33591 | -2.83639 | 83 ft | 18 kts | 85° |
| 2026-05-04 17:43 | 53.33600 | -2.83439 | 89 ft | 16 kts | 88° |
| 2026-05-04 17:43 | 53.33567 | -2.83320 | 88 ft | 8 kts | 144° |
| 2026-05-04 17:44 | 53.33555 | -2.83310 | 88 ft | 0 kts | 154° |
| 2026-05-04 17:45 | 53.33529 | -2.83299 | 87 ft | 12 kts | 173° |
| 2026-05-04 17:45 | 53.33441 | -2.83339 | 82 ft | 15 kts | 246° |
| 2026-05-04 17:45 | 53.33425 | -2.83634 | 70 ft | 52 kts | 266° |
| 2026-05-04 17:45 | 53.33380 | -2.84637 | 66 ft | 118 kts | 265° |
| 2026-05-04 17:46 | 53.33307 | -2.86244 | 325 ft | 148 kts | 269° |
| 2026-05-04 17:46 | 53.33215 | -2.87991 | 1023 ft | 155 kts | 269° |
| 2026-05-04 17:46 | 53.33112 | -2.89911 | 1437 ft | 179 kts | 269° |
| 2026-05-04 17:46 | 53.33051 | -2.92101 | 1875 ft | 194 kts | 281° |
| 2026-05-04 17:47 | 53.33537 | -2.94280 | 2289 ft | 213 kts | 303° |
| 2026-05-04 17:47 | 53.34335 | -2.96571 | 2697 ft | 242 kts | 300° |
| 2026-05-04 17:47 | 53.35140 | -2.99121 | 3599 ft | 253 kts | 296° |
| 2026-05-04 17:47 | 53.35909 | -3.01799 | 4580 ft | 258 kts | 295° |
| 2026-05-04 17:48 | 53.36678 | -3.04552 | 5540 ft | 263 kts | 295° |
| 2026-05-04 17:48 | 53.37459 | -3.07336 | 6537 ft | 266 kts | 295° |
| 2026-05-04 17:48 | 53.38258 | -3.10141 | 7483 ft | 268 kts | 295° |
| 2026-05-04 17:48 | 53.39098 | -3.12953 | 8397 ft | 272 kts | 301° |
| 2026-05-04 17:49 | 53.40331 | -3.15395 | 9298 ft | 277 kts | 313° |
| 2026-05-04 17:49 | 53.41670 | -3.17682 | 10206 ft | 281 kts | 313° |
| 2026-05-04 17:49 | 53.43098 | -3.20111 | 10556 ft | 305 kts | 313° |
| 2026-05-04 17:49 | 53.44637 | -3.22726 | 11009 ft | 322 kts | 314° |
| 2026-05-04 17:50 | 53.46231 | -3.25433 | 11709 ft | 329 kts | 313° |
| 2026-05-04 17:50 | 53.47854 | -3.28194 | 12470 ft | 335 kts | 314° |
| 2026-05-04 17:50 | 53.49501 | -3.31002 | 13242 ft | 340 kts | 313° |
| 2026-05-04 17:50 | 53.51168 | -3.33852 | 14015 ft | 344 kts | 313° |
| 2026-05-04 17:51 | 53.52851 | -3.36737 | 14684 ft | 348 kts | 314° |
| 2026-05-04 17:51 | 53.54554 | -3.39664 | 15343 ft | 352 kts | 314° |
| 2026-05-04 17:51 | 53.56278 | -3.42630 | 16025 ft | 356 kts | 313° |
| 2026-05-04 17:51 | 53.57977 | -3.45700 | 16689 ft | 360 kts | 308° |
| 2026-05-04 17:52 | 53.59454 | -3.49123 | 17334 ft | 364 kts | 304° |
| 2026-05-04 17:52 | 53.60927 | -3.52627 | 17976 ft | 369 kts | 305° |
| 2026-05-04 17:52 | 53.62417 | -3.56177 | 18586 ft | 373 kts | 305° |
| 2026-05-04 17:52 | 53.63924 | -3.59766 | 19136 ft | 377 kts | 305° |
| 2026-05-04 17:53 | 53.65448 | -3.63391 | 19704 ft | 381 kts | 306° |
| 2026-05-04 17:53 | 53.66982 | -3.67045 | 20266 ft | 384 kts | 306° |
| 2026-05-04 17:53 | 53.68535 | -3.70744 | 20825 ft | 388 kts | 306° |
| 2026-05-04 17:53 | 53.70091 | -3.74464 | 21430 ft | 389 kts | 306° |
| 2026-05-04 17:54 | 53.71655 | -3.78213 | 21981 ft | 392 kts | 306° |
| 2026-05-04 17:54 | 53.73230 | -3.81996 | 22513 ft | 395 kts | 306° |
| 2026-05-04 17:54 | 53.74816 | -3.85814 | 23042 ft | 399 kts | 306° |
| 2026-05-04 17:54 | 53.76413 | -3.89667 | 23556 ft | 402 kts | 306° |
| 2026-05-04 17:55 | 53.78022 | -3.93555 | 23942 ft | 405 kts | 306° |
| 2026-05-04 17:55 | 53.79619 | -3.97418 | 24046 ft | 403 kts | 306° |
| 2026-05-04 17:55 | 53.81200 | -4.01254 | 24076 ft | 394 kts | 306° |
| 2026-05-04 17:55 | 53.82760 | -4.05047 | 24076 ft | 391 kts | 306° |
| 2026-05-04 17:56 | 53.84317 | -4.08822 | 24075 ft | 391 kts | 306° |
| 2026-05-04 17:56 | 53.85920 | -4.12530 | 24075 ft | 390 kts | 311° |
| 2026-05-04 17:56 | 53.87839 | -4.15743 | 24076 ft | 388 kts | 322° |
| 2026-05-04 17:56 | 53.90073 | -4.18293 | 24077 ft | 386 kts | 333° |
| 2026-05-04 17:57 | 53.92529 | -4.20122 | 24075 ft | 385 kts | 340° |
| 2026-05-04 17:57 | 53.95017 | -4.21741 | 24078 ft | 383 kts | 340° |
| 2026-05-04 17:57 | 53.96658 | -4.22817 | 24078 ft | 382 kts | 339° |
| 2026-05-04 17:57 | 53.99974 | -4.25010 | 24078 ft | 382 kts | 339° |
| 2026-05-04 17:58 | 54.01610 | -4.26100 | 24079 ft | 382 kts | 339° |
| 2026-05-04 17:58 | 54.04087 | -4.27754 | 24080 ft | 382 kts | 339° |
| 2026-05-04 17:58 | 54.07361 | -4.29941 | 24080 ft | 382 kts | 339° |
| 2026-05-04 17:58 | 54.09031 | -4.31057 | 24079 ft | 382 kts | 339° |
| 2026-05-04 17:59 | 54.11506 | -4.32713 | 24079 ft | 382 kts | 339° |
| 2026-05-04 17:59 | 54.13894 | -4.34696 | 24080 ft | 383 kts | 329° |
| 2026-05-04 17:59 | 54.17808 | -4.40822 | 24070 ft | 385 kts | 307° |
| 2026-05-04 18:00 | 54.19348 | -4.44565 | 24069 ft | 385 kts | 306° |
| 2026-05-04 18:00 | 54.20883 | -4.48304 | 24076 ft | 385 kts | 306° |
| 2026-05-04 18:00 | 54.22411 | -4.52025 | 23903 ft | 378 kts | 306° |
| 2026-05-04 18:00 | 54.23911 | -4.55681 | 23449 ft | 374 kts | 306° |
| 2026-05-04 18:01 | 54.25374 | -4.59258 | 22935 ft | 370 kts | 306° |
| 2026-05-04 18:01 | 54.26845 | -4.62863 | 22394 ft | 368 kts | 306° |
| 2026-05-04 18:01 | 54.28306 | -4.66449 | 21893 ft | 366 kts | 306° |
| 2026-05-04 18:02 | 54.31187 | -4.73546 | 20948 ft | 360 kts | 306° |
| 2026-05-04 18:02 | 54.32605 | -4.77037 | 20574 ft | 355 kts | 306° |
| 2026-05-04 18:02 | 54.34003 | -4.80490 | 20128 ft | 352 kts | 306° |
| 2026-05-04 18:02 | 54.35392 | -4.83928 | 19669 ft | 350 kts | 305° |
| 2026-05-04 18:03 | 54.36776 | -4.87353 | 19207 ft | 349 kts | 305° |
| 2026-05-04 18:03 | 54.38152 | -4.90762 | 18789 ft | 346 kts | 305° |
| 2026-05-04 18:03 | 54.39517 | -4.94151 | 18361 ft | 344 kts | 305° |
| 2026-05-04 18:03 | 54.40876 | -4.97527 | 17949 ft | 340 kts | 305° |
| 2026-05-04 18:04 | 54.42211 | -5.00852 | 17512 ft | 337 kts | 305° |
| 2026-05-04 18:04 | 54.43534 | -5.04159 | 17066 ft | 335 kts | 304° |
| 2026-05-04 18:04 | 54.46167 | -5.10699 | 16195 ft | 330 kts | 305° |
| 2026-05-04 18:05 | 54.47472 | -5.13919 | 15804 ft | 328 kts | 304° |
| 2026-05-04 18:05 | 54.48769 | -5.17128 | 15397 ft | 325 kts | 304° |
| 2026-05-04 18:05 | 54.50000 | -5.20378 | 14994 ft | 323 kts | 295° |
| 2026-05-04 18:05 | 54.50566 | -5.24076 | 14614 ft | 321 kts | 272° |
| 2026-05-04 18:06 | 54.49438 | -5.31430 | 13778 ft | 321 kts | 249° |
| 2026-05-04 18:06 | 54.48615 | -5.34933 | 13364 ft | 319 kts | 249° |
| 2026-05-04 18:06 | 54.47785 | -5.38453 | 12944 ft | 317 kts | 249° |
| 2026-05-04 18:07 | 54.46955 | -5.41952 | 12543 ft | 314 kts | 249° |
| 2026-05-04 18:07 | 54.46130 | -5.45413 | 12143 ft | 312 kts | 249° |
| 2026-05-04 18:07 | 54.45311 | -5.48851 | 11740 ft | 310 kts | 249° |
| 2026-05-04 18:07 | 54.44497 | -5.52265 | 11335 ft | 308 kts | 249° |
| 2026-05-04 18:08 | 54.43685 | -5.55662 | 10940 ft | 306 kts | 249° |
| 2026-05-04 18:08 | 54.42879 | -5.59025 | 10552 ft | 304 kts | 249° |
| 2026-05-04 18:08 | 54.42083 | -5.62334 | 10390 ft | 294 kts | 249° |
| 2026-05-04 18:08 | 54.41315 | -5.65519 | 10256 ft | 284 kts | 249° |
| 2026-05-04 18:09 | 54.39824 | -5.71675 | 9629 ft | 277 kts | 249° |
| 2026-05-04 18:09 | 54.38351 | -5.77733 | 8877 ft | 273 kts | 249° |
| 2026-05-04 18:10 | 54.37620 | -5.80724 | 8499 ft | 271 kts | 249° |
| 2026-05-04 18:10 | 54.36893 | -5.83699 | 8118 ft | 269 kts | 249° |
| 2026-05-04 18:10 | 54.36170 | -5.86652 | 7717 ft | 268 kts | 249° |
| 2026-05-04 18:10 | 54.35451 | -5.89587 | 7337 ft | 266 kts | 249° |
| 2026-05-04 18:11 | 54.35038 | -5.92619 | 6978 ft | 260 kts | 272° |
| 2026-05-04 18:11 | 54.35503 | -5.95560 | 6612 ft | 258 kts | 300° |
| 2026-05-04 18:11 | 54.36611 | -5.97975 | 6173 ft | 258 kts | 309° |
| 2026-05-04 18:11 | 54.37771 | -6.00293 | 5753 ft | 252 kts | 310° |
| 2026-05-04 18:12 | 54.38910 | -6.02527 | 5176 ft | 247 kts | 310° |
| 2026-05-04 18:12 | 54.40038 | -6.04725 | 4548 ft | 244 kts | 311° |
| 2026-05-04 18:12 | 54.41353 | -6.06514 | 4076 ft | 241 kts | 332° |
| 2026-05-04 18:12 | 54.42932 | -6.07340 | 3822 ft | 236 kts | 353° |
| 2026-05-04 18:13 | 54.44541 | -6.07159 | 3648 ft | 229 kts | 12° |
| 2026-05-04 18:13 | 54.45976 | -6.06088 | 3528 ft | 222 kts | 31° |
| 2026-05-04 18:13 | 54.48457 | -6.03148 | 3121 ft | 216 kts | 32° |
| 2026-05-04 18:14 | 54.49683 | -6.01695 | 2826 ft | 209 kts | 32° |
| 2026-05-04 18:14 | 54.50844 | -6.00317 | 2549 ft | 200 kts | 32° |
| 2026-05-04 18:14 | 54.51972 | -5.98977 | 2275 ft | 194 kts | 32° |
| 2026-05-04 18:15 | 54.54064 | -5.96488 | 1778 ft | 170 kts | 32° |
| 2026-05-04 18:15 | 54.55839 | -5.94375 | 1349 ft | 142 kts | 30° |
| 2026-05-04 18:15 | 54.56628 | -5.93433 | 1135 ft | 133 kts | 31° |
| 2026-05-04 18:16 | 54.57380 | -5.92539 | 960 ft | 131 kts | 32° |
| 2026-05-04 18:16 | 54.58128 | -5.91649 | 802 ft | 130 kts | 33° |
| 2026-05-04 18:16 | 54.58874 | -5.90756 | 622 ft | 129 kts | 36° |
| 2026-05-04 18:17 | 54.60362 | -5.88987 | 287 ft | 131 kts | 36° |
| 2026-05-04 18:17 | 54.61105 | -5.88097 | 69 ft | 130 kts | 35° |
| 2026-05-04 18:17 | 54.62117 | -5.86884 | 16 ft | 36 kts | 34° |
| 2026-05-04 18:18 | 54.62307 | -5.86658 | 20 ft | 31 kts | 34° |
| 2026-05-04 18:18 | 54.62428 | -5.86507 | 21 ft | 12 kts | 45° |
| 2026-05-04 18:18 | 54.62456 | -5.86504 | 20 ft | 1 kts | 248° |
| 2026-05-04 18:18 | 54.62398 | -5.86554 | 22 ft | 18 kts | 209° |
| 2026-05-04 18:19 | 54.62188 | -5.86800 | 19 ft | 18 kts | 215° |
| 2026-05-04 18:19 | 54.62083 | -5.86926 | 17 ft | 18 kts | 214° |
| 2026-05-04 18:19 | 54.61984 | -5.87043 | 16 ft | 17 kts | 215° |
| 2026-05-04 18:20 | 54.61896 | -5.87149 | 19 ft | 14 kts | 215° |
| 2026-05-04 18:20 | 54.61830 | -5.87163 | 18 ft | 11 kts | 137° |
| 2026-05-04 18:20 | 54.61791 | -5.87067 | 20 ft | 7 kts | 125° |
| 2026-05-04 18:20 | 54.61750 | -5.86990 | 21 ft | 13 kts | 159° |
| 2026-05-04 18:21 | 54.61676 | -5.87050 | 23 ft | 11 kts | 216° |
| 2026-05-04 18:21 | 54.61614 | -5.87126 | 21 ft | 11 kts | 214° |
| 2026-05-04 18:21 | 54.61577 | -5.87170 | 21 ft | 4 kts | 213° |
| 2026-05-04 18:21 | 54.61559 | -5.87151 | 21 ft | 4 kts | 112° |
| 2026-05-04 18:22 | 54.61547 | -5.87120 | 21 ft | 3 kts | 126° |
| 2026-05-04 18:22 | 54.61540 | -5.87103 | 23 ft | 0 kts | 125° |
| 2026-05-04 18:22 | 54.61539 | -5.87100 | 23 ft | 0 kts | 125° |
| 2026-05-04 18:22 | 54.61539 | -5.87099 | 23 ft | 0 kts | 125° |